createdAt,value
2023-01-26T00:00:53.656Z,50.70
2023-01-26T00:04:52.747Z,51.20
2023-01-26T00:08:54.852Z,51.50
2023-01-26T00:12:44.561Z,53.80
2023-01-26T00:16:03.953Z,53.90
2023-01-26T00:20:20.820Z,52.30
2023-01-26T00:23:45.487Z,49.80
2023-01-26T00:27:43.837Z,51.50
2023-01-26T00:31:41.648Z,48.40
2023-01-26T00:36:00.155Z,49.40
2023-01-26T00:39:14.594Z,49.40
2023-01-26T00:43:11.474Z,50.80
2023-01-26T00:47:11.605Z,49.60
2023-01-26T00:51:32.766Z,51.40
2023-01-26T00:55:34.522Z,52.50
2023-01-26T00:59:32.221Z,56.10
2023-01-26T01:03:28.090Z,55.50
2023-01-26T01:07:24.705Z,58.20
2023-01-26T01:11:26.701Z,59.00
2023-01-26T01:15:22.367Z,56.60
2023-01-26T01:19:22.868Z,53.70
2023-01-26T01:23:19.633Z,53.30
2023-01-26T01:27:21.125Z,56.30
2023-01-26T01:30:54.330Z,60.10
2023-01-26T01:34:50.196Z,59.30
2023-01-26T01:44:29.037Z,54.20
2023-01-26T01:48:46.582Z,58.00
2023-01-26T02:02:30.124Z,58.00
2023-01-26T02:05:31.263Z,57.10
2023-01-26T02:09:51.754Z,56.00
2023-01-26T02:14:08.682Z,54.00
2023-01-26T02:17:43.982Z,55.60
2023-01-26T02:21:07.527Z,54.10
2023-01-26T02:25:19.525Z,55.40
2023-01-26T02:28:44.113Z,51.80
2023-01-26T02:32:38.852Z,56.00
2023-01-26T02:36:36.824Z,55.90
2023-01-26T02:51:12.601Z,52.20
2023-01-26T02:54:30.553Z,57.30
2023-01-26T02:58:27.557Z,49.70
2023-01-26T03:02:25.585Z,53.60
2023-01-26T03:06:23.630Z,51.80
2023-01-26T03:10:24.425Z,51.30
2023-01-26T03:14:41.513Z,51.60
2023-01-26T03:23:57.664Z,50.00
2023-01-26T03:28:06.362Z,52.10
2023-01-26T03:31:34.373Z,51.70
2023-01-26T03:46:17.264Z,51.40
2023-01-26T03:49:34.407Z,51.30
2023-01-26T03:53:50.467Z,48.70
2023-01-26T03:57:54.500Z,52.40
2023-01-26T04:02:10.076Z,47.10
2023-01-26T04:06:25.566Z,47.90
2023-01-26T04:21:10.496Z,50.80
2023-01-26T04:24:17.969Z,46.80
2023-01-26T04:28:20.151Z,48.60
2023-01-26T04:32:14.946Z,54.50
2023-01-26T04:36:12.560Z,46.20
2023-01-26T04:40:08.739Z,48.40
2023-01-26T04:44:06.750Z,50.00
2023-01-26T04:48:03.915Z,51.20
2023-01-26T04:52:00.071Z,49.20
2023-01-26T05:02:00.998Z,47.30
2023-01-26T05:16:25.445Z,52.40
2023-01-26T05:19:20.649Z,45.80
2023-01-26T05:23:39.814Z,49.60
2023-01-26T05:27:23.120Z,50.30
2023-01-26T05:30:33.963Z,51.00
2023-01-26T05:44:56.653Z,51.90
2023-01-26T05:47:54.776Z,50.00
2023-01-26T05:51:49.614Z,53.90
2023-01-26T05:55:44.501Z,49.50
2023-01-26T05:59:42.408Z,52.50
2023-01-26T06:03:39.180Z,50.90
2023-01-26T06:07:36.771Z,51.30
2023-01-26T06:11:34.873Z,55.10
2023-01-26T06:26:00.652Z,50.20
2023-01-26T06:39:55.214Z,50.20
2023-01-26T06:43:16.145Z,46.80
2023-01-26T06:58:39.778Z,49.80
2023-01-26T07:07:13.792Z,50.10
2023-01-26T07:11:15.183Z,50.40
2023-01-26T07:14:46.193Z,54.30
2023-01-26T07:18:47.992Z,50.20
2023-01-26T07:33:11.187Z,40.60
2023-01-26T07:36:11.375Z,41.90
2023-01-26T07:39:45.361Z,38.50
2023-01-26T07:43:22.452Z,40.50
2023-01-26T07:51:42.533Z,34.40
2023-01-26T09:43:40.878Z,15.30
2023-01-26T09:57:37.611Z,15.10
2023-01-26T10:00:47.672Z,16.30
2023-01-26T10:28:48.529Z,18.50
2023-01-26T10:31:58.108Z,13.70
2023-01-26T10:45:49.140Z,15.00
2023-01-26T10:50:06.966Z,16.00
2023-01-26T10:54:39.752Z,14.50
2023-01-26T13:40:28.976Z,22.60
2023-01-26T13:44:46.618Z,25.20
2023-01-26T13:59:53.303Z,19.50
2023-01-26T16:45:26.203Z,22.00
2023-01-26T17:27:57.005Z,20.80
2023-01-26T17:30:44.061Z,21.40
2023-01-26T17:33:30.514Z,21.80
2023-01-26T17:36:19.366Z,23.20
2023-01-26T17:39:06.094Z,21.60
2023-01-26T17:42:25.491Z,22.50
2023-01-26T17:45:12.144Z,24.40
2023-01-26T17:53:02.329Z,28.40
2023-01-26T19:29:37.243Z,23.70
2023-01-26T19:32:23.675Z,23.50
2023-01-26T19:39:31.626Z,24.10
2023-01-26T19:42:17.961Z,27.70
2023-01-26T19:53:54.619Z,23.40
2023-01-26T19:56:55.655Z,23.20
2023-01-26T21:11:02.489Z,25.50
2023-01-26T21:38:41.153Z,23.70
2023-01-26T21:41:56.560Z,29.70
2023-01-26T21:45:35.249Z,26.10
